Terminal Aerodrome Forecast
Issued by NWS St Louis, MO

Home | Current Version | Previous Version | Text Only | Print | Product List | Glossary On
Versions: 1 2 3 4 5 6 7 8 9 10 11 12 13 14 15 16 17 18 19 20 21 22 23 24
000
FTUS43 KLSX 181515 AAA
TAFSTL
TAF AMD
KSTL 181515Z 1815/1918 22012G22KT P6SM SCT060
     FM181700 28025G35KT P6SM BKN050
     FM190200 31013G24KT P6SM BKN030
     FM191200 32010KT P6SM BKN015
     FM191600 34009KT P6SM SCT040=

USA.gov is the U.S. government's official web portal to all federal, state and local government web resources and services.